Friday, July 20, 2018, 3:57 AM CDT
Back to Local

KFRI, Fort Riley, Marshall Aaf Ft Riley

Location: Fort Riley, KS, United States Lat: 39.056
Local Time: 3:57 AM CDT ( 8:57 GMT) Lon: -96.764
Time Zone: US/Central Elev: 1062 ft

Show me the last for .
Show Decoded

2018-07-20 02:56 METAR KFRI 200756Z AUTO 04005KT 10SM CLR 23/21 A2986 RMK AO2 SLP102 T02270211 =
2018-07-20 01:56 METAR KFRI 200656Z AUTO 00000KT 10SM CLR 24/21 A2986 RMK AO2 SLP099 T02440205 =
2018-07-20 00:56 METAR KFRI 200556Z AUTO 00000KT 10SM FEW075 24/22 A2986 RMK AO2 SLP097 T02360220
                 10297 20236 403560222 50010 =
2018-07-19 23:56 METAR KFRI 200456Z AUTO 05003KT 10SM CLR 24/23 A2985 RMK AO2 SLP095 T02430227 =
2018-07-19 22:56 METAR KFRI 200356Z AUTO 00000KT 10SM CLR 25/23 A2986 RMK AO2 SLP098 T02500228 =
2018-07-19 21:56 METAR KFRI 200256Z AUTO 35003KT 10SM CLR 26/23 A2983 RMK AO2 SLP088 T02610231
                 50007 =
2018-07-19 20:56 METAR KFRI 200156Z AUTO 00000KT 10SM FEW120 28/23 A2984 RMK AO2 SLP092 T02760234
                 =
2018-07-19 19:56 METAR KFRI 200056Z AUTO 00000KT 10SM CLR 29/23 A2982 RMK AO2 SLP086 T02900227 =
2018-07-19 18:56 METAR KFRI 192356Z AUTO 00000KT 10SM CLR 30/21 A2981 RMK AO2 SLP082 60032
                 T02950211 10356 20228 55007 =
2018-07-19 17:56 METAR KFRI 192256Z AUTO 27003KT 10SM CLR 29/19 A2981 RMK AO2
                 DZE12DZB15E16RAB16E26DZB26E27 PRESRR SLP083 P0000 T02880185 =
2018-07-19 17:27 METAR KFRI 192227Z AUTO 13005KT 10SM FEW075 SCT100 27/22 A2978 RMK AO2 LTG DSNT
                 SE DZE12DZB15E16RAB16E26DZB26E27 PRESFR SLP073 =
2018-07-19 17:15 METAR KFRI 192215Z AUTO 00000KT 10SM -DZ SCT090 SCT100 26/22 A2983 RMK AO2 LTG
                 DSNT SE DZE12DZB15 SLP090 =
2018-07-19 17:12 METAR KFRI 192212Z AUTO 27003KT 10SM SCT095 27/22 A2983 RMK AO2 DZE12 PRESRR
                 SLP090 =
2018-07-19 16:56 METAR KFRI 192156Z AUTO 00000KT 10SM -DZ FEW095 SCT120 27/21 A2981 RMK AO2
                 RAB43E53DZB55 SLP083 P0000 T02680213 =
2018-07-19 16:55 METAR KFRI 192155Z AUTO 00000KT 10SM -DZ FEW095 SCT120 27/21 A2982 RMK AO2
                 RAB43E53DZB55 SLP086 =
2018-07-19 16:53 METAR KFRI 192153Z AUTO 35003KT 10SM FEW090 SCT120 27/20 A2982 RMK AO2 RAB43E53
                 SLP086 =
2018-07-19 16:43 METAR KFRI 192143Z AUTO 00000KT 9SM -RA FEW100 SCT120 BKN140 27/19 A2982 RMK AO2
                 LTG DSNT NW RAB43 SLP086 =
2018-07-19 15:56 METAR KFRI 192056Z AUTO 00000KT 10SM FEW140 SCT200 25/22 A2983 RMK AO2 TSE1957
                 SLP091 60032 T02520217 50001 =
2018-07-19 14:57 METAR KFRI 191957Z AUTO 09003KT 10SM VCTS FEW065 SCT180 23/20 A2986 RMK AO2
                 TSE57 SLP101 =
2018-07-19 14:56 METAR KFRI 191956Z AUTO 12007KT 10SM TS SCT055 SCT190 23/20 A2986 RMK AO2 PK WND
                 31045/11 RAB14E47 TSB21 SLP101 P0032 T02300197 =
2018-07-19 14:47 METAR KFRI 191947Z AUTO 11005KT 10SM TS SCT038 23/19 A2986 RMK AO2 RAB14E47
                 TSB21 SLP101 =
2018-07-19 14:43 METAR KFRI 191943Z AUTO 11005KT 10SM -TSRA BKN038 23/19 A2986 RMK AO2 RAB14
                 TSB21 PRESFR SLP101 =
2018-07-19 14:35 METAR KFRI 191935Z AUTO 32005G18KT 4SM TSRA BKN038 OVC050 23/19 A2992 RMK AO2
                 RAB14 TSB21 PRESFR SLP122 =
2018-07-19 14:25 METAR KFRI 191925Z AUTO 27013G35KT 1SM +TSRA BKN019 BKN032 BKN050 OVC100 24/21
                 A2994 RMK AO2 WSHFT 18 VIS 1V8 RAB14 TSB21 CIG 019V110 SLP128 RVRNO $ =
2018-07-19 14:21 METAR KFRI 191921Z AUTO 29025G45KT 3SM +TSRA SCT017 SCT032 BKN050 BKN100 25/22
                 A2995 RMK AO2 RAB14 TSB21 PRESRR SLP131 =
2018-07-19 14:14 METAR KFRI 191914Z AUTO 30029G45KT 10SM -RA VCTS FEW031 SCT050 BKN100 32/22
                 A2992 RMK AO2 RAB14 SLP118 =
2018-07-19 14:12 METAR KFRI 191912Z AUTO 30027G45KT 10SM FEW050 BKN100 32/22 A2992 RMK AO2 LTG
                 DSNT N AND SW-W PRESRR SLP118 =
2018-07-19 13:56 METAR KFRI 191856Z AUTO 30005KT 10SM FEW100 33/22 A2986 RMK AO2 LTG DSNT SW
                 SLP098 T03270215 =
2018-07-19 12:56 METAR KFRI 191756Z AUTO 30006KT 10SM CLR 35/21 A2983 RMK AO2 SLP087 T03520207
                 10353 20232 56006 =
2018-07-19 11:56 METAR KFRI 191656Z AUTO 26008KT 10SM CLR 34/21 A2984 RMK AO2 SLP091 T03390210 =
2018-07-19 10:56 METAR KFRI 191556Z AUTO 25012KT 10SM CLR 32/21 A2984 RMK AO2 SLP091 T03220207 =
2018-07-19 09:56 METAR KFRI 191456Z AUTO 26007KT 10SM CLR 30/23 A2985 RMK AO2 SLP095 T03040225
                 58002 =
2018-07-19 08:56 METAR KFRI 191356Z AUTO 23008KT 10SM CLR 28/23 A2986 RMK AO2 SLP099 T02790230 =
2018-07-19 07:56 METAR KFRI 191256Z AUTO 00000KT 10SM CLR 26/23 A2987 RMK AO2 SLP102 T02550230 =
2018-07-19 06:56 METAR KFRI 191156Z AUTO 05005KT 10SM CLR 24/23 A2986 RMK AO2 SLP099 T02360231
                 10258 20222 58001 =
2018-07-19 05:56 METAR KFRI 191056Z AUTO 23005KT 10SM CLR 23/23 A2986 RMK AO2 SLP099 T02290229 =
2018-07-19 04:56 METAR KFRI 190956Z AUTO 22004KT 10SM CLR 24/22 A2986 RMK AO2 SLP099 T02410223 =

Support USWX by starting your Amazon purchase here.